Kamenica Nad Cirochou, Slovakia

4:41 AM CEST on July 24, 2016 (GMT +0200)
Markovce MS2 | | Change Station

Elev 384 ft 48.59 °N, 21.84 °E | Updated 8 minutes ago

Clear
Clear
63.2 °F
Feels Like 63.2 °F
N
4.0
Wind Variable Wind from NNW
Gusts 8.0 mph

Today
High -- | Low -- °F
--% Chance of Precip.
Yesterday
High -- | Low -- °F
Precip. -- in
Pressure 30.06 in
Visibility -9999.0 miles
Clouds
Dew Point 60 °F
Humidity 90%
Rainfall 0.00 in
Snow Depth Not available.
4:55 AM 8:21 PM
Waning Gibbous, 80% visible
METAR LZKZ 240230Z 01006KT CAVOK 19/15 Q1018
Pressure 30.06 in
Visibility -9999.0 miles
Clouds
Dew Point 60 °F
Humidity 90%
Rainfall 0.00 in
Snow Depth Not available.
4:55 AM 8:21 PM
Waning Gibbous, 80% visible
METAR LZKZ 240230Z 01006KT CAVOK 19/15 Q1018

10-Day Weather Forecast

×

Almanac

Astronomy

Jul. 24, 2016 Rise Set
Actual Time
Civil Twilight
Nautical Twilight
Astronomical Twilight
Moon
Length of Visible Light
Length of Day
Tomorrow will be .
, % of the Moon is Illuminated

Today's Extremes

Country Highs Country Lows

Community

WunderPhotos

Upload Photos

1,927,004 photos uploaded!

WunderBlog® & News

Nearby

Air Quality

  Air Quality AQ Index Pollutant
Not available.

Snow Depth

Station Depth Elevation

Earthquake Activity

City Distance Mag. Time & Date
Minimum magnitude displayed is 2.5.

Coastal Water Temperatures

Place Temperature

Stations

Nearby Weather Stations

Station Location Temp. Windchill Dew Point Humidity Wind Precip. Elev Updated Type